createdAt,value
2023-08-15T00:01:15.028Z,3.17
2023-08-15T00:04:17.315Z,3.45
2023-08-15T00:07:20.605Z,2.83
2023-08-15T00:10:24.396Z,3.27
2023-08-15T00:13:26.959Z,2.95
2023-08-15T00:16:29.177Z,3.45
2023-08-15T00:19:31.373Z,3.57
2023-08-15T00:22:33.559Z,3.13
2023-08-15T00:25:35.801Z,2.88
2023-08-15T00:28:37.949Z,3.20
2023-08-15T00:31:40.780Z,3.33
2023-08-15T00:34:43.034Z,3.40
2023-08-15T00:37:45.276Z,3.15
2023-08-15T00:40:47.495Z,3.03
2023-08-15T00:43:49.724Z,3.60
2023-08-15T00:46:51.989Z,3.17
2023-08-15T00:49:54.400Z,3.00
2023-08-15T00:52:56.667Z,3.40
2023-08-15T00:56:00.584Z,3.28
2023-08-15T00:59:03.315Z,3.70
2023-08-15T01:02:05.881Z,3.60
2023-08-15T01:05:08.825Z,3.58
2023-08-15T01:08:11.094Z,3.47
2023-08-15T01:11:13.876Z,3.57
2023-08-15T01:14:18.398Z,3.17
2023-08-15T01:17:30.047Z,3.00
2023-08-15T01:20:35.099Z,3.40
2023-08-15T01:23:40.287Z,3.38
2023-08-15T01:26:42.509Z,3.45
2023-08-15T01:29:44.740Z,3.50
2023-08-15T01:33:03.802Z,3.35
2023-08-15T01:36:21.156Z,3.20
2023-08-15T01:39:28.292Z,3.28
2023-08-15T01:42:31.194Z,3.30
2023-08-15T01:45:34.119Z,3.35
2023-08-15T01:48:41.460Z,3.22
2023-08-15T01:51:43.771Z,3.17
2023-08-15T01:54:46.005Z,3.00
2023-08-15T01:57:48.149Z,3.58
2023-08-15T02:00:50.917Z,3.55
2023-08-15T02:03:53.164Z,3.10
2023-08-15T02:06:55.398Z,3.30
2023-08-15T02:09:57.612Z,3.33
2023-08-15T02:12:59.816Z,3.03
2023-08-15T02:16:02.513Z,3.03
2023-08-15T02:19:04.765Z,3.13
2023-08-15T02:22:07.011Z,2.97
2023-08-15T02:25:09.401Z,3.00
2023-08-15T02:28:11.596Z,3.45
2023-08-15T02:31:13.923Z,3.60
2023-08-15T02:34:19.543Z,3.30
2023-08-15T02:37:22.083Z,3.35
2023-08-15T02:40:28.224Z,3.42
2023-08-15T02:43:30.409Z,3.30
2023-08-15T02:46:35.244Z,3.42
2023-08-15T02:49:37.561Z,3.35
2023-08-15T02:52:39.786Z,3.50
2023-08-15T02:55:42.015Z,3.00
2023-08-15T02:58:44.258Z,3.50
2023-08-15T03:01:48.166Z,3.80
2023-08-15T03:04:50.545Z,3.35
2023-08-15T03:07:52.793Z,3.28
2023-08-15T03:10:55.032Z,4.10
2023-08-15T03:13:59.327Z,3.33
2023-08-15T03:17:03.452Z,3.47
2023-08-15T03:20:07.276Z,3.90
2023-08-15T03:23:10.012Z,4.17
2023-08-15T03:26:13.231Z,3.63
2023-08-15T03:29:15.988Z,3.25
2023-08-15T03:32:18.209Z,3.30
2023-08-15T03:35:22.723Z,3.55
2023-08-15T03:38:25.452Z,3.80
2023-08-15T03:41:28.162Z,4.05
2023-08-15T03:44:30.346Z,3.70
2023-08-15T03:47:32.574Z,4.03
2023-08-15T03:50:36.171Z,4.07
2023-08-15T03:53:38.442Z,3.63
2023-08-15T03:56:40.795Z,3.83
2023-08-15T03:59:43.020Z,4.53
2023-08-15T04:02:45.901Z,4.18
2023-08-15T04:05:48.358Z,4.68
2023-08-15T04:08:50.596Z,4.28
2023-08-15T04:11:52.889Z,3.85
2023-08-15T04:14:55.152Z,4.03
2023-08-15T04:17:57.477Z,4.20
2023-08-15T04:21:01.410Z,3.40
2023-08-15T04:24:04.060Z,3.67
2023-08-15T04:27:07.708Z,3.40
2023-08-15T04:30:10.552Z,3.55
2023-08-15T04:33:12.763Z,3.92
2023-08-15T04:36:15.961Z,3.97
2023-08-15T04:39:22.610Z,3.53
2023-08-15T04:42:24.996Z,3.47
2023-08-15T04:45:27.737Z,3.53
2023-08-15T04:48:29.940Z,3.75
2023-08-15T04:51:32.146Z,3.78
2023-08-15T04:54:34.397Z,3.47
2023-08-15T04:57:36.597Z,3.67
2023-08-15T05:00:38.821Z,4.28
2023-08-15T05:03:41.589Z,3.60
2023-08-15T05:06:43.749Z,3.95
2023-08-15T05:09:46.037Z,4.18
2023-08-15T05:12:48.217Z,3.90
2023-08-15T05:15:50.505Z,3.47
2023-08-15T05:18:52.780Z,3.70
2023-08-15T05:21:57.004Z,4.32
2023-08-15T05:25:00.579Z,3.93
2023-08-15T05:28:05.541Z,3.63
2023-08-15T05:31:07.783Z,3.92
2023-08-15T05:34:11.363Z,3.78
2023-08-15T05:37:13.834Z,3.60
2023-08-15T05:40:16.581Z,3.63
2023-08-15T05:43:18.797Z,4.13
2023-08-15T05:46:20.983Z,3.60
2023-08-15T05:49:23.170Z,3.78
2023-08-15T05:52:27.109Z,3.25
2023-08-15T05:55:29.278Z,3.60
2023-08-15T05:58:31.564Z,3.38
2023-08-15T06:01:33.867Z,3.55
2023-08-15T06:04:36.191Z,3.63
2023-08-15T06:07:38.544Z,3.63
2023-08-15T06:10:40.780Z,3.67
2023-08-15T06:13:42.954Z,3.60
2023-08-15T06:16:45.166Z,3.00
2023-08-15T06:19:47.579Z,3.58
2023-08-15T06:22:49.829Z,3.70
2023-08-15T06:25:52.074Z,3.73
2023-08-15T06:28:54.224Z,3.20
2023-08-15T06:31:59.107Z,3.63
2023-08-15T06:35:02.240Z,3.58
2023-08-15T06:38:04.651Z,3.38
2023-08-15T06:41:07.945Z,3.30
2023-08-15T06:44:10.229Z,3.60
2023-08-15T06:47:12.581Z,3.40
2023-08-15T06:50:14.724Z,3.53
2023-08-15T06:53:16.981Z,2.92
2023-08-15T06:56:19.344Z,3.40
2023-08-15T06:59:24.627Z,2.70
2023-08-15T07:02:26.947Z,2.65
2023-08-15T07:05:29.200Z,3.13
2023-08-15T07:08:32.215Z,2.83
2023-08-15T07:11:37.171Z,2.70
2023-08-15T07:14:39.374Z,3.35
2023-08-15T07:17:41.620Z,2.27
2023-08-15T07:20:45.740Z,2.97
2023-08-15T07:23:47.948Z,2.80
2023-08-15T07:26:50.150Z,2.80
2023-08-15T07:29:52.361Z,2.47
2023-08-15T07:32:56.246Z,2.33
2023-08-15T07:35:58.578Z,2.80
2023-08-15T07:39:00.792Z,2.22
2023-08-15T07:42:03.175Z,2.40
2023-08-15T07:45:06.173Z,2.63
2023-08-15T07:48:08.381Z,2.50
2023-08-15T07:51:11.859Z,2.78
2023-08-15T07:54:14.627Z,2.15
2023-08-15T07:57:16.843Z,2.20
2023-08-15T08:00:19.247Z,2.00
2023-08-15T08:03:21.537Z,2.17
2023-08-15T08:06:39.088Z,2.60
2023-08-15T08:09:42.408Z,2.55
2023-08-15T08:12:46.855Z,2.55
2023-08-15T08:15:49.420Z,2.75
2023-08-15T08:18:51.660Z,2.50
2023-08-15T08:21:54.561Z,2.50
2023-08-15T08:24:56.734Z,2.58
2023-08-15T08:27:58.905Z,2.50
2023-08-15T08:31:01.086Z,2.25
2023-08-15T08:34:03.288Z,2.67
2023-08-15T08:37:05.447Z,2.35
2023-08-15T08:40:09.303Z,2.30
2023-08-15T08:43:12.294Z,2.30
2023-08-15T08:46:15.025Z,2.58
2023-08-15T08:49:18.038Z,2.40
2023-08-15T08:52:20.240Z,2.38
2023-08-15T08:55:23.533Z,2.67
2023-08-15T08:58:27.381Z,2.70
2023-08-15T09:01:31.047Z,2.53
2023-08-15T09:04:33.235Z,2.38
2023-08-15T09:07:36.397Z,2.60
2023-08-15T09:10:38.707Z,2.47
2023-08-15T09:13:53.834Z,2.77
2023-08-15T09:16:56.180Z,2.53
2023-08-15T09:20:08.429Z,2.78
2023-08-15T09:23:10.623Z,2.37
2023-08-15T09:26:14.134Z,2.47
2023-08-15T09:29:17.269Z,2.50
2023-08-15T09:32:19.522Z,2.28
2023-08-15T09:35:21.697Z,2.30
2023-08-15T09:38:23.834Z,2.60
2023-08-15T09:41:27.955Z,2.45
2023-08-15T09:44:31.879Z,2.30
2023-08-15T09:47:35.693Z,2.28
2023-08-15T09:50:39.246Z,2.33
2023-08-15T09:53:43.674Z,2.20
2023-08-15T09:56:47.673Z,2.50
2023-08-15T09:59:49.861Z,2.38
2023-08-15T10:03:12.300Z,2.40
2023-08-15T10:06:14.870Z,2.03
2023-08-15T10:09:17.746Z,2.22
2023-08-15T10:12:20.477Z,2.13
2023-08-15T10:15:23.405Z,2.60
2023-08-15T10:18:26.329Z,2.33
2023-08-15T10:21:50.090Z,2.67
2023-08-15T10:24:52.325Z,2.38
2023-08-15T10:27:56.707Z,2.30
2023-08-15T10:30:59.150Z,2.30
2023-08-15T10:34:03.564Z,2.50
2023-08-15T10:37:27.997Z,2.45
2023-08-15T10:40:41.706Z,2.40
2023-08-15T10:43:52.364Z,2.05
2023-08-15T10:46:57.411Z,2.30
2023-08-15T10:49:59.650Z,2.45
2023-08-15T10:53:08.172Z,2.30
2023-08-15T10:56:10.658Z,2.17
2023-08-15T10:59:15.326Z,2.28
2023-08-15T11:02:17.665Z,2.20
2023-08-15T11:05:20.489Z,1.73
2023-08-15T11:08:22.733Z,2.10
2023-08-15T11:11:25.657Z,2.30
2023-08-15T11:14:27.824Z,2.20
2023-08-15T11:17:30.045Z,2.22
2023-08-15T11:20:32.332Z,1.90
2023-08-15T11:23:35.350Z,2.28
2023-08-15T11:26:37.569Z,2.30
2023-08-15T11:29:40.768Z,2.33
2023-08-15T11:32:43.242Z,2.35
2023-08-15T11:35:48.596Z,2.45
2023-08-15T11:38:50.790Z,2.33
2023-08-15T11:41:53.588Z,2.40
2023-08-15T11:45:02.906Z,2.33
2023-08-15T11:48:05.592Z,2.30
2023-08-15T11:51:07.881Z,2.40
2023-08-15T11:54:10.118Z,2.60
2023-08-15T11:57:12.354Z,2.33
2023-08-15T12:00:19.476Z,2.60
2023-08-15T12:03:21.797Z,2.22
2023-08-15T12:06:24.011Z,2.40
2023-08-15T12:09:30.713Z,2.25
2023-08-15T12:12:40.757Z,2.30
2023-08-15T12:15:43.014Z,2.35
2023-08-15T12:18:46.327Z,2.25
2023-08-15T12:21:50.323Z,2.28
2023-08-15T12:24:52.593Z,2.23
2023-08-15T12:27:54.791Z,2.40
2023-08-15T12:30:57.136Z,2.38
2023-08-15T12:33:59.296Z,2.33
2023-08-15T12:37:01.537Z,2.30
2023-08-15T12:40:05.244Z,2.47
2023-08-15T12:43:11.087Z,2.28
2023-08-15T12:46:16.003Z,2.10
2023-08-15T12:49:18.486Z,2.60
2023-08-15T12:52:21.067Z,2.75
2023-08-15T12:55:23.752Z,2.20
2023-08-15T12:58:26.130Z,2.50
2023-08-15T13:01:28.997Z,2.23
2023-08-15T13:04:31.346Z,2.30
2023-08-15T13:07:34.577Z,2.47
2023-08-15T13:10:36.901Z,2.80
2023-08-15T13:13:40.191Z,2.45
2023-08-15T13:16:42.748Z,2.20
2023-08-15T13:19:44.956Z,2.45
2023-08-15T13:22:47.151Z,2.37
2023-08-15T13:25:49.396Z,2.40
2023-08-15T13:28:51.889Z,2.22
2023-08-15T13:31:54.362Z,2.90
2023-08-15T13:34:56.575Z,2.35
2023-08-15T13:37:59.276Z,2.50
2023-08-15T13:41:01.562Z,2.53
2023-08-15T13:44:04.265Z,2.30
2023-08-15T13:47:06.572Z,2.38
2023-08-15T13:50:09.900Z,2.38
2023-08-15T13:53:12.248Z,2.38
2023-08-15T13:56:17.339Z,2.43
2023-08-15T13:59:19.537Z,2.77
2023-08-15T14:02:21.798Z,2.40
2023-08-15T14:05:24.031Z,2.30
2023-08-15T14:08:26.464Z,2.87
2023-08-15T14:11:28.753Z,2.50
2023-08-15T14:14:30.910Z,2.72
2023-08-15T14:17:33.092Z,2.30
2023-08-15T14:20:36.397Z,2.40
2023-08-15T14:23:41.166Z,2.28
2023-08-15T14:26:43.397Z,2.40
2023-08-15T14:29:45.591Z,2.35
2023-08-15T14:32:48.090Z,2.23
2023-08-15T14:35:50.307Z,2.33
2023-08-15T14:38:52.894Z,2.35
2023-08-15T14:41:55.064Z,2.70
2023-08-15T14:44:57.305Z,2.70
2023-08-15T14:47:59.555Z,2.65
2023-08-15T14:51:01.891Z,2.40
2023-08-15T14:54:04.369Z,2.80
2023-08-15T14:57:06.576Z,3.07
2023-08-15T15:00:10.090Z,2.70
2023-08-15T15:03:12.688Z,2.50
2023-08-15T15:06:16.185Z,2.67
2023-08-15T15:09:18.698Z,2.47
2023-08-15T15:12:20.850Z,2.63
2023-08-15T15:15:31.570Z,2.40
2023-08-15T15:18:43.701Z,2.37
2023-08-15T15:21:46.000Z,2.78
2023-08-15T15:24:48.231Z,2.90
2023-08-15T15:27:50.430Z,2.60
2023-08-15T15:30:53.616Z,2.55
2023-08-15T15:33:55.883Z,2.42
2023-08-15T15:36:58.128Z,2.50
2023-08-15T15:40:01.681Z,2.57
2023-08-15T15:43:04.060Z,2.63
2023-08-15T15:46:06.294Z,2.65
2023-08-15T15:49:09.482Z,2.63
2023-08-15T15:52:12.252Z,2.50
2023-08-15T15:55:15.041Z,2.80
2023-08-15T15:58:17.297Z,2.35
2023-08-15T16:01:19.530Z,2.50
2023-08-15T16:04:24.451Z,2.60
2023-08-15T16:07:26.692Z,2.20
2023-08-15T16:10:29.738Z,2.47
2023-08-15T16:13:31.907Z,2.10
2023-08-15T16:16:34.098Z,2.30
2023-08-15T16:19:36.331Z,2.78
2023-08-15T16:22:38.536Z,2.83
2023-08-15T16:25:40.732Z,2.83
2023-08-15T16:28:44.855Z,2.70
2023-08-15T16:31:47.034Z,2.35
2023-08-15T16:34:49.224Z,2.53
2023-08-15T16:37:51.509Z,2.58
2023-08-15T16:40:53.652Z,2.57
2023-08-15T16:43:57.428Z,2.40
2023-08-15T16:46:59.703Z,2.42
2023-08-15T16:50:01.988Z,2.50
2023-08-15T16:53:04.888Z,2.42
2023-08-15T16:56:07.073Z,2.40
2023-08-15T16:59:09.270Z,2.65
2023-08-15T17:02:11.562Z,2.50
2023-08-15T17:05:13.788Z,3.03
2023-08-15T17:08:16.119Z,2.38
2023-08-15T17:11:18.772Z,3.00
2023-08-15T17:14:21.411Z,3.10
2023-08-15T17:17:23.932Z,3.40
2023-08-15T17:20:26.218Z,3.00
2023-08-15T17:23:28.378Z,3.57
2023-08-15T17:26:30.649Z,3.28
2023-08-15T17:29:33.131Z,3.20
2023-08-15T17:32:35.390Z,3.47
2023-08-15T17:35:37.585Z,2.80
2023-08-15T17:38:39.800Z,2.92
2023-08-15T17:41:44.814Z,3.35
2023-08-15T17:44:48.148Z,3.00
2023-08-15T17:47:50.320Z,3.15
2023-08-15T17:50:52.565Z,3.17
2023-08-15T17:53:54.800Z,3.08
2023-08-15T17:56:57.078Z,3.40
2023-08-15T17:59:59.316Z,3.20
2023-08-15T18:03:01.517Z,3.03
2023-08-15T18:06:03.739Z,3.27
2023-08-15T18:09:05.962Z,3.20
2023-08-15T18:12:08.356Z,3.28
2023-08-15T18:15:11.535Z,3.28
2023-08-15T18:18:13.804Z,3.30
2023-08-15T18:21:16.097Z,3.35
2023-08-15T18:24:18.501Z,3.17
2023-08-15T18:27:21.114Z,3.10
2023-08-15T18:30:23.371Z,2.92
2023-08-15T18:33:25.564Z,3.25
2023-08-15T18:36:27.821Z,3.37
2023-08-15T18:39:29.991Z,3.50
2023-08-15T18:42:32.320Z,3.45
2023-08-15T18:45:34.580Z,3.15
2023-08-15T18:48:37.420Z,3.22
2023-08-15T18:51:39.624Z,3.65
2023-08-15T18:54:41.820Z,3.42
2023-08-15T18:57:44.064Z,3.10
2023-08-15T19:00:46.280Z,3.33
2023-08-15T19:03:48.560Z,3.28
2023-08-15T19:06:51.185Z,3.60
2023-08-15T19:09:54.443Z,2.78
2023-08-15T19:12:56.603Z,3.53
2023-08-15T19:15:58.877Z,3.42
2023-08-15T19:19:05.046Z,3.10
2023-08-15T19:22:07.225Z,3.50
2023-08-15T19:25:09.895Z,3.38
2023-08-15T19:28:12.129Z,3.27
2023-08-15T19:31:14.463Z,3.20
2023-08-15T19:34:18.827Z,3.20
2023-08-15T19:37:36.116Z,3.35
2023-08-15T19:40:40.386Z,3.53
2023-08-15T19:43:42.622Z,3.85
2023-08-15T19:46:44.994Z,3.70
2023-08-15T19:49:47.221Z,3.27
2023-08-15T19:52:49.394Z,3.60
2023-08-15T19:55:51.692Z,3.30
2023-08-15T19:58:54.079Z,3.00
2023-08-15T20:01:56.324Z,3.22
2023-08-15T20:04:58.491Z,3.35
2023-08-15T20:08:00.865Z,3.72
2023-08-15T20:11:03.781Z,3.17
2023-08-15T20:14:05.996Z,3.75
2023-08-15T20:17:08.249Z,3.38
2023-08-15T20:20:11.131Z,3.70
2023-08-15T20:23:13.440Z,3.75
2023-08-15T20:26:15.630Z,3.70
2023-08-15T20:29:17.759Z,4.07
2023-08-15T20:32:20.046Z,4.10
2023-08-15T20:35:22.248Z,3.85
2023-08-15T20:38:24.528Z,3.70
2023-08-15T20:41:26.744Z,3.80
2023-08-15T20:44:28.954Z,3.60
2023-08-15T20:47:31.323Z,4.13
2023-08-15T20:50:33.529Z,3.43
2023-08-15T20:53:35.742Z,3.72
2023-08-15T20:56:37.962Z,3.88
2023-08-15T20:59:40.198Z,4.13
2023-08-15T21:02:42.468Z,3.47
2023-08-15T21:05:45.282Z,3.88
2023-08-15T21:08:47.582Z,4.00
2023-08-15T21:11:49.796Z,3.72
2023-08-15T21:14:52.086Z,4.00
2023-08-15T21:17:54.309Z,4.03
2023-08-15T21:20:56.600Z,3.40
2023-08-15T21:23:58.798Z,3.97
2023-08-15T21:27:00.977Z,3.88
2023-08-15T21:30:03.314Z,3.60
2023-08-15T21:33:05.567Z,4.05
2023-08-15T21:36:08.034Z,4.30
2023-08-15T21:39:10.299Z,4.10
2023-08-15T21:42:12.575Z,4.03
2023-08-15T21:45:15.474Z,3.70
2023-08-15T21:48:17.753Z,3.50
2023-08-15T21:51:19.937Z,3.23
2023-08-15T21:54:23.363Z,4.07
2023-08-15T21:57:25.727Z,3.30
2023-08-15T22:00:28.382Z,3.43
2023-08-15T22:03:30.789Z,3.72
2023-08-15T22:06:33.136Z,4.22
2023-08-15T22:09:35.379Z,4.00
2023-08-15T22:12:37.948Z,3.80
2023-08-15T22:15:40.407Z,4.03
2023-08-15T22:18:42.642Z,3.85
2023-08-15T22:21:47.065Z,3.20
2023-08-15T22:24:57.424Z,3.90
2023-08-15T22:28:07.077Z,3.88
2023-08-15T22:31:09.795Z,4.03
2023-08-15T22:34:14.891Z,3.95
2023-08-15T22:37:17.173Z,4.00
2023-08-15T22:40:20.095Z,3.72
2023-08-15T22:43:22.276Z,3.75
2023-08-15T22:46:24.467Z,4.07
2023-08-15T22:49:26.643Z,4.28
2023-08-15T22:52:28.850Z,3.87
2023-08-15T22:55:34.011Z,3.80
2023-08-15T22:58:36.259Z,3.90
2023-08-15T23:01:38.520Z,4.07
2023-08-15T23:04:40.834Z,3.72
2023-08-15T23:07:43.096Z,3.88
2023-08-15T23:10:52.614Z,4.00
2023-08-15T23:13:54.901Z,4.00
2023-08-15T23:16:57.067Z,4.20
2023-08-15T23:19:59.347Z,3.75
2023-08-15T23:23:01.579Z,4.23
2023-08-15T23:26:03.920Z,4.20
2023-08-15T23:29:06.161Z,3.53
2023-08-15T23:32:08.384Z,3.87
2023-08-15T23:35:14.598Z,4.28
2023-08-15T23:38:18.141Z,4.40
2023-08-15T23:41:20.384Z,4.00
2023-08-15T23:44:22.626Z,4.80
2023-08-15T23:47:25.989Z,4.65
2023-08-15T23:50:28.396Z,4.28
2023-08-15T23:53:30.599Z,3.80
2023-08-15T23:56:32.802Z,4.57
2023-08-15T23:59:35.128Z,4.20
